Caliente, Nevada Weather observations

Data are for observation ending at time listed.
 Day   Time    Ave.   Ave.  Ave.  Vector   Max.   Stn.    Total    Solar   Ave.  
  of    of     Air    Rel.  Wind   Wind    Wind   Baro.  Precip.   Rad.    Soil  
Year   Day     Temp.  Hum.  Speed  Dir.    Gust   Pres.                    Temp. 
2014   (PST)    F      %     mph   deg.    mph     mb.     in.     W/m2     F   
------------------------------------------------------------------------------
 232   20:00   68.0    48    1.5   120      3.3   867.0    0.00       0    82.6
 232   20:10   67.5    49    0.4   112      1.3   867.1    0.00       0    82.4
 232   20:20   66.9    51    1.3   102      3.7   867.2    0.00       0    82.2
 232   20:30   66.9    51    0.9    40      3.1   867.2    0.00       0    82.0
 232   20:40   66.3    52    1.9   120      3.3   867.2    0.00       0    81.8
 232   20:50   66.1    52    1.3    96      2.8   867.4    0.00       1    81.6
 232   21:00   66.0    55    1.6   110      3.3   867.4    0.00       0    81.4
 232   21:10   65.1    58    0.4   182      1.8   867.5    0.00       0    81.2
 232   21:20   64.6    60    0.5   167      1.6   867.5    0.00       0    81.0
 232   21:30   64.1    63    0.2   234      0.9   867.6    0.00       0    80.8
 232   21:40   63.8    66    0.3   243      1.6   867.6    0.00       0    80.6
 232   21:50   63.2    68    0.2   174      1.5   867.6    0.00       0    80.4
 232   22:00   63.0    70    0.3   164      1.5   867.6    0.00       0    80.2
 232   22:10   62.9    71    0.1   151      0.7   867.6    0.00       0    80.0
 232   22:20   62.7    73    0.2   146      1.3   867.7    0.00       0    79.9
 232   22:30   62.5    74    0.0     0      0.0   867.8    0.00       0    79.7
 232   22:40   62.1    75    0.3   155      1.3   867.8    0.00       0    79.5
 232   22:50   61.4    76    0.3   153      1.0   867.8    0.00       0    79.4
 232   23:00   61.4    77    0.0     0      0.0   867.9    0.00       0    79.2
 232   23:10   61.1    76    0.3   122      1.5   868.0    0.00       0    79.1
 232   23:20   60.5    78    0.7    74      1.5   868.0    0.00       0    78.9
 232   23:30   60.8    76    0.6    77      2.5   868.1    0.00       0    78.8
 232   23:40   60.7    76    0.3    56      1.2   868.1    0.00       0    78.6
 232   23:50   60.4    76    0.6   108      1.5   868.1    0.00       1    78.4
 233    0:00   59.7    78    0.4    93      1.3   868.0    0.00       0    78.3
 233    0:10   59.4    78    1.1   102      2.2   868.0    0.00       0    78.1
 233    0:20   59.0    78    0.7    37      2.0   868.0    0.00       0    78.0
 233    0:30   58.9    78    0.8   144      1.5   867.9    0.00       0    77.8
 233    0:40   58.6    79    0.4   179      1.5   867.9    0.00       0    77.7
 233    0:50   58.9    80    0.4   221      1.5   867.9    0.00       0    77.5
 233    1:00   58.9    81    0.7   171      2.0   867.9    0.00       0    77.4
 233    1:10   58.6    83    0.5   104      1.8   867.8    0.00       0    77.2
 233    1:20   58.8    83    0.4   348      1.8   867.9    0.00       1    77.1
 233    1:30   58.5    82    0.5    92      1.4   868.0    0.00       0    76.9
 233    1:40   57.8    83    0.8   141      1.4   868.1    0.00       0    76.8
 233    1:50   57.4    83    0.6   130      1.5   868.1    0.00       0    76.6
 233    2:00   57.5    84    0.6   109      1.3   868.2    0.00       0    76.5
 233    2:10   57.5    85    0.0   114      0.7   868.2    0.00       0    76.3
 233    2:20   57.5    85    0.8    45      2.0   868.3    0.00       0    76.2
 233    2:30   56.8    85    0.4   104      1.5   868.3    0.00       0    76.1
 233    2:40   56.4    85    0.9   120      1.8   868.3    0.00       0    75.9
 233    2:50   56.4    86    0.1   132      1.0   868.4    0.00       0    75.8
 233    3:00   56.2    87    0.6   144      1.3   868.3    0.00       0    75.7
 233    3:10   56.2    87    0.3   118      1.1   868.4    0.00       0    75.5
 233    3:20   56.4    87    0.3    21      2.6   868.5    0.00       0    75.4
 233    3:30   56.6    86    0.3    29      1.2   868.5    0.00       0    75.2
 233    3:40   56.2    86    0.7    68      5.5   868.5    0.00       0    75.1
 233    3:50   55.9    86    0.8    61      1.7   868.5    0.00       0    75.0
 233    4:00   55.5    86    0.6    38      1.5   868.6    0.00       0    74.9
 233    4:10   55.3    87    1.0   120      1.8   868.5    0.00       0    74.7
 233    4:20   55.3    88    0.3   119      1.2   868.5    0.00       0    74.6
 233    4:30   55.4    87    0.3    41      1.4   868.6    0.00       0    74.4
 233    4:40   54.6    88    1.3   118      2.1   868.7    0.00       0    74.3
 233    4:50   54.4    88    0.2   128      0.9   868.9    0.00       0    74.2
 233    5:00   54.6    88    0.0     0      0.0   869.0    0.00       0    74.1
 233    5:10   54.3    88    1.1   115      1.9   869.1    0.00       3    74.0
 233    5:20   54.2    89    0.6   148      1.5   869.2    0.00       6    73.8
 233    5:30   54.7    88    0.9   337      2.1   869.4    0.00      11    73.7
 233    5:40   54.8    87    1.3   181      4.1   869.6    0.00      13    73.5
 233    5:50   54.7    88    0.8   114      1.6   869.7    0.00      20    73.4
 233    6:00   55.3    86    0.3   130      1.2   869.8    0.00      28    73.3
 233    6:10   56.4    84    0.5   116      1.6   869.9    0.00      28    73.2
 233    6:20   56.8    83    0.8   122      1.9   869.9    0.00      47    73.1
 233    6:30   56.9    82    1.0   141      2.0   869.9    0.00     173    73.0
 233    6:40   57.9    79    0.5   244      1.5   869.9    0.00     203    73.0
 233    6:50   58.9    77    0.7   134      2.3   869.9    0.00     230    72.9
 233    7:00   60.6    74    0.3    94      1.6   869.9    0.00     257    72.8
 233    7:10   63.2    67    0.5    94      2.0   869.8    0.00     284    72.7
 233    7:20   64.2    64    0.7   240      2.6   869.9    0.00     311    72.7
 233    7:30   65.3    62    0.7   348      2.1   869.9    0.00     336    72.6
 233    7:40   65.2    62    1.5   284      3.9   869.8    0.00     361    72.6
 233    7:50   67.4    58    0.5    13      2.0   869.7    0.00     386    72.6
 233    8:00   68.2    55    1.6    34      4.5   869.7    0.00     411    72.5
 233    8:10   68.6    56    1.5    52      4.4   869.6    0.00     434    72.5
 233    8:20   68.9    55    2.9   358      6.6   869.6    0.00     459    72.6
 233    8:30   69.8    52    3.3   352      6.6   869.6    0.00     486    72.6
 233    8:40   70.4    52    3.4    41      6.9   869.6    0.00     509    72.7
 233    8:50   71.9    47    3.3    32      6.3   869.5    0.00     531    72.8
 233    9:00   72.6    46    3.4     8      7.1   869.5    0.00     553    73.0
 233    9:10   73.3    45    3.2    28      6.6   869.6    0.00     458    73.2
 233    9:20   74.5    43    2.5    11      5.3   869.5    0.00     149    73.5
 233    9:30   76.5    37    1.0    47      3.4   869.4    0.00     509    73.7
 233    9:40   77.0    35    2.0   333      4.6   869.3    0.00     621    73.8
 233    9:50   77.6    34    1.5    58      4.5   869.2    0.00     647    74.0
 233   10:00   79.6    32    0.5   105      3.2   869.0    0.00     659    74.2
 233   10:10   80.2    28    1.9   274      4.7   868.9    0.00     678    74.3
 233   10:20   80.6    27    3.4   250      9.3   868.8    0.00     699    74.5
 233   10:30   80.9    26    3.0   244     11.5   868.7    0.00     704    74.8
 233   10:40   80.7    27    3.4   148      8.3   868.5    0.00     720    75.1
 233   10:50   81.2    26    3.8   243      7.5   868.5    0.00     701    75.5
 233   11:00   82.0    26    1.5   248      5.0   868.4    0.00     768    75.9
 233   11:10   82.6    24    2.1   277      4.7   868.2    0.00     772    76.1
 233   11:20   83.1    24    2.6   254      9.8   868.1    0.00     785    76.3
 233   11:30   83.5    24    2.5   227      7.1   868.1    0.00     803    76.4
 233   11:40   83.7    24    2.4   251     11.6   868.0    0.00     800    76.6
 233   11:50   83.2    24    4.3   252      9.6   868.0    0.00     723    76.8
 233   12:00   83.3    24    2.8   268      8.4   867.9    0.00     758    77.0
 233   12:10   84.5    24    2.4   242     12.3   867.7    0.00     761    77.1
 233   12:20   83.3    24    4.9   249     10.6   867.7    0.00     767    77.3
 233   12:30   83.7    24    5.0   258     12.0   867.6    0.00     778    77.5
 233   12:40   83.6    24    9.3   249     16.2   867.6    0.00     766    77.7
 233   12:50   83.1    24    7.2   250     13.4   867.6    0.00     566    78.1
 233   13:00   82.7    24    6.2   248     13.8   867.5    0.00     739    78.4
 233   13:10   83.6    24    5.4   246     11.8   867.5    0.00     733    78.8
 233   13:20   84.2    24    3.5   244     13.4   867.5    0.00     709    79.4
 233   13:30   84.7    23    5.9   253     12.8   867.4    0.00     632    80.1
 233   13:40   82.3    25    8.6   247     21.0   867.4    0.00     242    80.8
 233   13:50   81.2    26    5.6   242     17.0   867.4    0.00     444    81.3
 233   14:00   82.5    21    6.5   246     18.3   867.2    0.00     654    81.8
 233   14:10   84.2    19    3.9   244     12.1   867.1    0.00     629    82.4
 233   14:20   83.9    20    6.2   249     14.6   867.1    0.00     441    83.1
 233   14:30   83.8    20    5.6   248     13.3   867.0    0.00     535    83.8
 233   14:40   83.1    22    3.3   242      9.1   866.9    0.00     297    84.5
 233   14:50   82.8    23    1.9   236      5.4   866.7    0.00     208    85.0
 233   15:00   83.9    23    3.0   245      8.6   866.7    0.00     267    85.4
 233   15:10   84.3    22    1.6   213      6.4   866.6    0.00     555    85.7
 233   15:20   85.7    22    3.8   220     13.2   866.6    0.00     547    85.9
 233   15:30   83.3    27    6.2   223     20.6   866.8    0.00     466    86.4
 233   15:40   80.8    33    4.9   240     15.9   867.1    0.00     417    86.9
 233   15:50   79.2    35    7.1   245     15.1   867.2    0.00     382    87.4
 233   16:00   78.0    37    8.2   247     18.9   867.2    0.00     354    87.7
 233   16:10   77.1    39    9.8   246     18.6   867.2    0.00     325    88.0
 233   16:20   76.9    40    6.4   247     13.2   867.2    0.00     299    88.3
 233   16:30   76.4    39    9.1   246     19.2   867.3    0.00     184    88.4
 233   16:40   76.2    38    9.6   246     20.6   867.3    0.00     224    88.5
 233   16:50   76.4    37    8.8   245     20.8   867.3    0.00     217    88.5
 233   17:00   77.1    36    3.1   239     10.5   867.6    0.00     192    88.5
 233   17:10   76.7    36    6.0   251     13.3   867.6    0.00     167    88.5
 233   17:20   76.3    36    7.0   247     14.5   867.5    0.00     142    88.5
 233   17:30   75.7    36    7.1   248     12.8   867.5    0.00     118    88.5
 233   17:40   75.5    36    6.1   248     16.3   867.5    0.00      95    88.4
 233   17:50   75.5    36    4.4   247     11.4   867.5    0.00      70    88.3
 233   18:00   75.5    36    4.7   249     10.6   867.7    0.00      30    88.1
 233   18:10   75.1    36    3.2   253      7.5   867.7    0.00      10    87.9
 233   18:20   74.0    39    0.7   119      1.9   867.8    0.00       7    87.6
 233   18:30   73.9    38    0.6   101      2.5   867.9    0.00       3    87.3
 233   18:40   73.6    39    1.0   186      2.5   867.9    0.00       2    87.0
 233   18:50   72.9    43    0.7   278      2.1   868.0    0.00       0    86.8
 233   19:00   71.5    45    1.1   135      3.1   868.2    0.00       0    86.5
 233   19:10   71.6    41    1.6   143      4.4   868.3    0.00       0    86.2
 233   19:20   72.1    40    1.6   167      3.0   868.4    0.00       0    85.9
 233   19:30   71.6    43    0.6   246      3.1   868.4    0.00       0    85.6
 233   19:40   70.7    46    0.2   156      1.3   868.4    0.00       0    85.3
 233   19:50   70.2    47    0.2    45      0.9   868.4    0.00       0    85.1

Return to Caliente, Nevada graphs page.


Western Regional Climate Center,wrcc@dri.edu